AFL907 UWKD-URWW
Flight info
| Callsign | AFL907 |
|---|---|
| Flight time | 1h 5m |
| Altitude | 36000 |
| Route | SONUM1G SONUM T789 DAFOS P135 UROBO R807 RODUN RODUN1J |
| Aircraft | A320/M-SDE3FGHIRWY/LB1 |
Departure
| Time | 2026-05-07 20:09 |
|---|---|
| Airport | Kazan International Airport (UWKD) |
Arrival
| Time | 2026-05-07 21:14 |
|---|---|
| Airport | Volgograd International Airport (URWW) |
| Time | Latitude | Longitude | Altitude | Speed | Heading |
|---|---|---|---|---|---|
| 2026-05-07 19:46 | 55.60805 | 49.29687 | 422 ft | 0 kts | 35° |
| 2026-05-07 19:55 | 55.60793 | 49.29672 | 421 ft | 2 kts | 35° |
| 2026-05-07 19:55 | 55.60779 | 49.29655 | 421 ft | 2 kts | 35° |
| 2026-05-07 19:56 | 55.60764 | 49.29643 | 421 ft | 2 kts | 11° |
| 2026-05-07 19:56 | 55.60748 | 49.29636 | 418 ft | 2 kts | 27° |
| 2026-05-07 19:56 | 55.60733 | 49.29621 | 419 ft | 2 kts | 31° |
| 2026-05-07 19:56 | 55.60719 | 49.29606 | 418 ft | 2 kts | 33° |
| 2026-05-07 19:57 | 55.60709 | 49.29594 | 418 ft | 0 kts | 37° |
| 2026-05-07 20:01 | 55.60713 | 49.29600 | 422 ft | 2 kts | 37° |
| 2026-05-07 20:01 | 55.60739 | 49.29621 | 422 ft | 6 kts | 10° |
| 2026-05-07 20:01 | 55.60783 | 49.29556 | 420 ft | 11 kts | 304° |
| 2026-05-07 20:01 | 55.60798 | 49.29411 | 411 ft | 15 kts | 226° |
| 2026-05-07 20:02 | 55.60712 | 49.29302 | 419 ft | 16 kts | 214° |
| 2026-05-07 20:02 | 55.60609 | 49.29173 | 417 ft | 20 kts | 223° |
| 2026-05-07 20:02 | 55.60579 | 49.29016 | 418 ft | 0 kts | 271° |
| 2026-05-07 20:04 | 55.60579 | 49.29013 | 418 ft | 2 kts | 271° |
| 2026-05-07 20:04 | 55.60580 | 49.28962 | 417 ft | 7 kts | 273° |
| 2026-05-07 20:04 | 55.60585 | 49.28843 | 416 ft | 13 kts | 275° |
| 2026-05-07 20:04 | 55.60595 | 49.28646 | 412 ft | 20 kts | 277° |
| 2026-05-07 20:05 | 55.60668 | 49.28415 | 408 ft | 24 kts | 303° |
| 2026-05-07 20:05 | 55.60771 | 49.28151 | 408 ft | 28 kts | 304° |
| 2026-05-07 20:05 | 55.60887 | 49.27847 | 406 ft | 32 kts | 304° |
| 2026-05-07 20:05 | 55.61024 | 49.27499 | 395 ft | 37 kts | 305° |
| 2026-05-07 20:06 | 55.61153 | 49.27171 | 390 ft | 24 kts | 304° |
| 2026-05-07 20:06 | 55.61217 | 49.26952 | 394 ft | 15 kts | 261° |
| 2026-05-07 20:06 | 55.61171 | 49.26863 | 393 ft | 0 kts | 216° |
| 2026-05-07 20:07 | 55.61169 | 49.26860 | 392 ft | 2 kts | 216° |
| 2026-05-07 20:07 | 55.61142 | 49.26828 | 392 ft | 7 kts | 214° |
| 2026-05-07 20:07 | 55.61091 | 49.26767 | 392 ft | 6 kts | 214° |
| 2026-05-07 20:07 | 55.61057 | 49.26782 | 392 ft | 0 kts | 128° |
| 2026-05-07 20:08 | 55.61055 | 49.26786 | 392 ft | 2 kts | 128° |
| 2026-05-07 20:08 | 55.61025 | 49.26856 | 392 ft | 25 kts | 127° |
| 2026-05-07 20:08 | 55.60739 | 49.27582 | 403 ft | 115 kts | 124° |
| 2026-05-07 20:08 | 55.60156 | 49.29106 | 544 ft | 173 kts | 126° |
| 2026-05-07 20:09 | 55.59439 | 49.30938 | 1323 ft | 190 kts | 124° |
| 2026-05-07 20:09 | 55.58702 | 49.32987 | 2097 ft | 201 kts | 122° |
| 2026-05-07 20:09 | 55.57923 | 49.35156 | 2639 ft | 219 kts | 125° |
| 2026-05-07 20:10 | 55.56098 | 49.39725 | 4101 ft | 234 kts | 124° |
| 2026-05-07 20:10 | 55.55081 | 49.42021 | 4815 ft | 246 kts | 137° |
| 2026-05-07 20:10 | 55.53471 | 49.43318 | 5180 ft | 270 kts | 175° |
| 2026-05-07 20:10 | 55.51616 | 49.42673 | 5849 ft | 280 kts | 211° |
| 2026-05-07 20:11 | 55.50257 | 49.40276 | 6663 ft | 281 kts | 243° |
| 2026-05-07 20:11 | 55.49349 | 49.37210 | 7520 ft | 284 kts | 237° |
| 2026-05-07 20:11 | 55.47927 | 49.34761 | 8348 ft | 291 kts | 215° |
| 2026-05-07 20:11 | 55.46138 | 49.33045 | 9225 ft | 295 kts | 205° |
| 2026-05-07 20:12 | 55.44226 | 49.31692 | 10068 ft | 299 kts | 201° |
| 2026-05-07 20:12 | 55.42207 | 49.30397 | 10453 ft | 320 kts | 201° |
| 2026-05-07 20:12 | 55.40057 | 49.28993 | 10845 ft | 337 kts | 202° |
| 2026-05-07 20:12 | 55.37851 | 49.27468 | 11552 ft | 343 kts | 203° |
| 2026-05-07 20:13 | 55.35630 | 49.25848 | 12330 ft | 347 kts | 205° |
| 2026-05-07 20:13 | 55.33400 | 49.24155 | 13112 ft | 351 kts | 205° |
| 2026-05-07 20:13 | 55.31158 | 49.22413 | 13863 ft | 354 kts | 206° |
| 2026-05-07 20:13 | 55.28927 | 49.20665 | 14529 ft | 357 kts | 206° |
| 2026-05-07 20:14 | 55.26648 | 49.18882 | 15195 ft | 361 kts | 206° |
| 2026-05-07 20:14 | 55.24347 | 49.17089 | 15861 ft | 364 kts | 205° |
| 2026-05-07 20:14 | 55.22025 | 49.15286 | 16536 ft | 366 kts | 205° |
| 2026-05-07 20:14 | 55.19683 | 49.13478 | 17223 ft | 369 kts | 205° |
| 2026-05-07 20:15 | 55.17322 | 49.11663 | 17891 ft | 372 kts | 206° |
| 2026-05-07 20:15 | 55.15037 | 49.09513 | 18500 ft | 374 kts | 211° |
| 2026-05-07 20:15 | 55.12771 | 49.07230 | 19060 ft | 377 kts | 211° |
| 2026-05-07 20:15 | 55.10492 | 49.04931 | 19627 ft | 380 kts | 211° |
| 2026-05-07 20:16 | 55.08197 | 49.02620 | 20194 ft | 383 kts | 211° |
| 2026-05-07 20:16 | 55.05879 | 49.00293 | 20742 ft | 385 kts | 211° |
| 2026-05-07 20:16 | 55.03547 | 48.97959 | 21283 ft | 388 kts | 211° |
| 2026-05-07 20:16 | 55.01193 | 48.95611 | 21814 ft | 391 kts | 211° |
| 2026-05-07 20:17 | 54.98826 | 48.93249 | 22340 ft | 394 kts | 211° |
| 2026-05-07 20:17 | 54.96435 | 48.90869 | 22849 ft | 397 kts | 211° |
| 2026-05-07 20:17 | 54.94846 | 48.89289 | 23192 ft | 399 kts | 210° |
| 2026-05-07 20:17 | 54.92422 | 48.86883 | 23672 ft | 402 kts | 210° |
| 2026-05-07 20:18 | 54.89984 | 48.84459 | 24109 ft | 405 kts | 210° |
| 2026-05-07 20:18 | 54.87532 | 48.82024 | 24537 ft | 408 kts | 210° |
| 2026-05-07 20:18 | 54.85058 | 48.79572 | 24951 ft | 410 kts | 210° |
| 2026-05-07 20:18 | 54.81761 | 48.76312 | 25494 ft | 414 kts | 210° |
| 2026-05-07 20:19 | 54.80067 | 48.74642 | 25769 ft | 416 kts | 210° |
| 2026-05-07 20:19 | 54.77544 | 48.72166 | 26180 ft | 418 kts | 210° |
| 2026-05-07 20:19 | 54.75003 | 48.69684 | 26568 ft | 421 kts | 210° |
| 2026-05-07 20:19 | 54.72442 | 48.67185 | 26944 ft | 424 kts | 210° |
| 2026-05-07 20:20 | 54.69868 | 48.64670 | 27324 ft | 426 kts | 210° |
| 2026-05-07 20:20 | 54.67312 | 48.62177 | 27705 ft | 429 kts | 210° |
| 2026-05-07 20:20 | 54.64706 | 48.59634 | 28081 ft | 432 kts | 210° |
| 2026-05-07 20:20 | 54.62083 | 48.57072 | 28455 ft | 434 kts | 210° |
| 2026-05-07 20:21 | 54.59451 | 48.54497 | 28829 ft | 437 kts | 210° |
| 2026-05-07 20:21 | 54.56797 | 48.51907 | 29188 ft | 439 kts | 210° |
| 2026-05-07 20:21 | 54.54129 | 48.49316 | 29534 ft | 443 kts | 210° |
| 2026-05-07 20:21 | 54.51432 | 48.46708 | 29824 ft | 446 kts | 210° |
| 2026-05-07 20:22 | 54.48714 | 48.44085 | 30126 ft | 449 kts | 210° |
| 2026-05-07 20:22 | 54.45980 | 48.41450 | 30413 ft | 451 kts | 209° |
| 2026-05-07 20:22 | 54.43233 | 48.38809 | 30705 ft | 453 kts | 209° |
| 2026-05-07 20:22 | 54.40475 | 48.36158 | 31000 ft | 455 kts | 209° |
| 2026-05-07 20:23 | 54.37710 | 48.33499 | 31279 ft | 457 kts | 209° |
| 2026-05-07 20:23 | 54.34937 | 48.30833 | 31649 ft | 456 kts | 209° |
| 2026-05-07 20:23 | 54.32177 | 48.28187 | 32063 ft | 455 kts | 209° |
| 2026-05-07 20:23 | 54.29458 | 48.25582 | 32466 ft | 453 kts | 209° |
| 2026-05-07 20:24 | 54.26703 | 48.22957 | 32864 ft | 452 kts | 207° |
| 2026-05-07 20:24 | 54.23862 | 48.20680 | 33249 ft | 451 kts | 204° |
| 2026-05-07 20:24 | 54.21000 | 48.18494 | 33639 ft | 450 kts | 204° |
| 2026-05-07 20:24 | 54.18153 | 48.16283 | 34031 ft | 449 kts | 205° |
| 2026-05-07 20:25 | 54.15340 | 48.14001 | 34365 ft | 448 kts | 206° |
| 2026-05-07 20:25 | 54.12548 | 48.11662 | 34699 ft | 447 kts | 206° |
| 2026-05-07 20:25 | 54.09769 | 48.09297 | 35027 ft | 445 kts | 207° |
| 2026-05-07 20:25 | 54.07001 | 48.06940 | 35346 ft | 445 kts | 207° |
| 2026-05-07 20:26 | 54.04233 | 48.04597 | 35661 ft | 444 kts | 206° |
| 2026-05-07 20:26 | 54.01469 | 48.02280 | 35909 ft | 444 kts | 206° |
| 2026-05-07 20:26 | 53.98705 | 47.99988 | 35965 ft | 440 kts | 206° |
| 2026-05-07 20:27 | 53.93505 | 47.95713 | 35970 ft | 439 kts | 206° |
| 2026-05-07 20:27 | 53.89102 | 47.92093 | 35972 ft | 439 kts | 206° |
| 2026-05-07 20:28 | 53.86037 | 47.89573 | 35972 ft | 439 kts | 206° |
| 2026-05-07 20:28 | 53.83744 | 47.87692 | 35839 ft | 441 kts | 206° |
| 2026-05-07 20:28 | 53.80976 | 47.85420 | 35652 ft | 438 kts | 206° |
| 2026-05-07 20:28 | 53.78815 | 47.83647 | 35789 ft | 439 kts | 206° |
| 2026-05-07 20:29 | 53.76068 | 47.81396 | 35965 ft | 440 kts | 206° |
| 2026-05-07 20:29 | 53.71346 | 47.77533 | 35980 ft | 441 kts | 206° |
| 2026-05-07 20:30 | 53.65771 | 47.72997 | 35973 ft | 451 kts | 206° |
| 2026-05-07 20:30 | 53.60052 | 47.68345 | 35975 ft | 460 kts | 206° |
| 2026-05-07 20:31 | 53.54308 | 47.63687 | 35978 ft | 462 kts | 206° |
| 2026-05-07 20:31 | 53.48509 | 47.59018 | 35978 ft | 462 kts | 206° |
| 2026-05-07 20:32 | 53.42708 | 47.54359 | 35976 ft | 463 kts | 206° |
| 2026-05-07 20:32 | 53.36897 | 47.49696 | 35980 ft | 463 kts | 206° |
| 2026-05-07 20:33 | 53.31093 | 47.45057 | 35979 ft | 463 kts | 206° |
| 2026-05-07 20:33 | 53.25275 | 47.40409 | 35975 ft | 463 kts | 206° |
| 2026-05-07 20:34 | 53.19506 | 47.35812 | 35972 ft | 463 kts | 206° |
| 2026-05-07 20:34 | 53.13684 | 47.31196 | 35969 ft | 463 kts | 205° |
| 2026-05-07 20:35 | 53.07863 | 47.26600 | 35973 ft | 463 kts | 205° |
| 2026-05-07 20:35 | 53.02033 | 47.22011 | 35970 ft | 463 kts | 205° |
| 2026-05-07 20:36 | 52.96157 | 47.17636 | 35951 ft | 463 kts | 195° |
| 2026-05-07 20:36 | 52.90204 | 47.14034 | 35978 ft | 446 kts | 207° |
| 2026-05-07 20:37 | 52.84884 | 47.09079 | 35973 ft | 440 kts | 210° |
| 2026-05-07 20:37 | 52.80660 | 47.05221 | 35975 ft | 440 kts | 208° |
| 2026-05-07 20:38 | 52.75731 | 47.01224 | 35977 ft | 439 kts | 205° |
| 2026-05-07 20:39 | 52.70091 | 46.96981 | 35979 ft | 449 kts | 205° |
| 2026-05-07 20:39 | 52.64379 | 46.92701 | 35978 ft | 452 kts | 205° |
| 2026-05-07 20:40 | 52.58675 | 46.88321 | 35976 ft | 452 kts | 206° |
| 2026-05-07 20:40 | 52.52981 | 46.83900 | 35978 ft | 453 kts | 206° |
| 2026-05-07 20:41 | 52.47279 | 46.79515 | 35984 ft | 453 kts | 205° |
| 2026-05-07 20:41 | 52.41534 | 46.75125 | 35976 ft | 459 kts | 205° |
| 2026-05-07 20:42 | 52.35773 | 46.70745 | 35973 ft | 460 kts | 205° |
| 2026-05-07 20:42 | 52.29965 | 46.66340 | 35975 ft | 460 kts | 205° |
| 2026-05-07 20:43 | 52.24155 | 46.61925 | 35970 ft | 460 kts | 205° |
| 2026-05-07 20:43 | 52.18349 | 46.57533 | 35971 ft | 460 kts | 205° |
| 2026-05-07 20:44 | 52.12528 | 46.53158 | 35966 ft | 461 kts | 205° |
| 2026-05-07 20:44 | 52.06711 | 46.48799 | 35967 ft | 461 kts | 205° |
| 2026-05-07 20:45 | 52.00887 | 46.44435 | 35964 ft | 461 kts | 205° |
| 2026-05-07 20:45 | 51.95058 | 46.40082 | 35974 ft | 461 kts | 205° |
| 2026-05-07 20:46 | 51.89223 | 46.35743 | 35965 ft | 462 kts | 205° |
| 2026-05-07 20:46 | 51.83379 | 46.31395 | 35965 ft | 462 kts | 205° |
| 2026-05-07 20:47 | 51.77478 | 46.27035 | 35970 ft | 463 kts | 205° |
| 2026-05-07 20:47 | 51.56547 | 46.11652 | 35979 ft | 463 kts | 205° |
| 2026-05-07 20:48 | 51.33063 | 45.94559 | 35962 ft | 464 kts | 205° |
| 2026-05-07 20:48 | 51.09495 | 45.77601 | 35971 ft | 466 kts | 205° |
| 2026-05-07 20:49 | 50.87118 | 45.61687 | 35973 ft | 467 kts | 204° |
| 2026-05-07 20:49 | 50.81216 | 45.57519 | 35974 ft | 467 kts | 204° |
| 2026-05-07 20:50 | 50.75050 | 45.54370 | 35981 ft | 467 kts | 192° |
| 2026-05-07 20:50 | 50.71872 | 45.53278 | 35744 ft | 470 kts | 192° |
| 2026-05-07 20:50 | 50.68701 | 45.52185 | 35452 ft | 463 kts | 192° |
| 2026-05-07 20:50 | 50.65580 | 45.51105 | 35161 ft | 455 kts | 192° |
| 2026-05-07 20:51 | 50.62498 | 45.50030 | 34718 ft | 452 kts | 192° |
| 2026-05-07 20:51 | 50.59435 | 45.48961 | 34236 ft | 450 kts | 192° |
| 2026-05-07 20:51 | 50.56389 | 45.47901 | 33734 ft | 448 kts | 192° |
| 2026-05-07 20:51 | 50.53354 | 45.46844 | 33166 ft | 446 kts | 192° |
| 2026-05-07 20:52 | 50.50320 | 45.45791 | 32555 ft | 445 kts | 192° |
| 2026-05-07 20:52 | 50.47297 | 45.44747 | 31950 ft | 445 kts | 192° |
| 2026-05-07 20:52 | 50.44271 | 45.43709 | 31343 ft | 445 kts | 192° |
| 2026-05-07 20:52 | 50.41248 | 45.42671 | 30712 ft | 445 kts | 192° |
| 2026-05-07 20:53 | 50.38228 | 45.41632 | 30094 ft | 444 kts | 192° |
| 2026-05-07 20:53 | 50.35253 | 45.40608 | 29396 ft | 444 kts | 192° |
| 2026-05-07 20:53 | 50.32240 | 45.39571 | 28698 ft | 443 kts | 192° |
| 2026-05-07 20:53 | 50.29236 | 45.38541 | 28015 ft | 442 kts | 192° |
| 2026-05-07 20:54 | 50.26237 | 45.37516 | 27350 ft | 441 kts | 192° |
| 2026-05-07 20:54 | 50.23248 | 45.36501 | 26692 ft | 439 kts | 192° |
| 2026-05-07 20:54 | 50.20266 | 45.35489 | 26051 ft | 438 kts | 192° |
| 2026-05-07 20:54 | 50.17293 | 45.34474 | 25431 ft | 437 kts | 192° |
| 2026-05-07 20:55 | 50.14324 | 45.33459 | 24807 ft | 436 kts | 192° |
| 2026-05-07 20:55 | 50.11368 | 45.32451 | 24234 ft | 433 kts | 192° |
| 2026-05-07 20:55 | 50.08429 | 45.31452 | 23663 ft | 431 kts | 192° |
| 2026-05-07 20:55 | 50.05511 | 45.30460 | 23030 ft | 429 kts | 192° |
| 2026-05-07 20:56 | 50.02604 | 45.29476 | 22386 ft | 427 kts | 192° |
| 2026-05-07 20:56 | 49.99718 | 45.28428 | 21751 ft | 425 kts | 194° |
| 2026-05-07 20:56 | 49.96872 | 45.27242 | 21129 ft | 423 kts | 195° |
| 2026-05-07 20:56 | 49.94054 | 45.25969 | 20520 ft | 421 kts | 196° |
| 2026-05-07 20:57 | 49.91258 | 45.24661 | 19923 ft | 419 kts | 197° |
| 2026-05-07 20:57 | 49.88474 | 45.23362 | 19335 ft | 417 kts | 196° |
| 2026-05-07 20:57 | 49.85698 | 45.22091 | 18759 ft | 415 kts | 196° |
| 2026-05-07 20:57 | 49.82929 | 45.20852 | 18188 ft | 413 kts | 195° |
| 2026-05-07 20:58 | 49.80169 | 45.19638 | 17544 ft | 411 kts | 195° |
| 2026-05-07 20:58 | 49.77421 | 45.18439 | 16906 ft | 410 kts | 195° |
| 2026-05-07 20:58 | 49.74680 | 45.17251 | 16291 ft | 409 kts | 195° |
| 2026-05-07 20:58 | 49.71943 | 45.16070 | 15688 ft | 407 kts | 195° |
| 2026-05-07 20:59 | 49.69216 | 45.14892 | 15091 ft | 406 kts | 195° |
| 2026-05-07 20:59 | 49.66502 | 45.13690 | 14512 ft | 405 kts | 197° |
| 2026-05-07 20:59 | 49.63835 | 45.12321 | 13934 ft | 404 kts | 199° |
| 2026-05-07 20:59 | 49.61209 | 45.10807 | 13304 ft | 402 kts | 201° |
| 2026-05-07 21:00 | 49.58650 | 45.09256 | 12676 ft | 400 kts | 201° |
| 2026-05-07 21:00 | 49.56072 | 45.07674 | 12066 ft | 397 kts | 201° |
| 2026-05-07 21:00 | 49.53506 | 45.06115 | 11456 ft | 395 kts | 201° |
| 2026-05-07 21:00 | 49.50956 | 45.04595 | 10861 ft | 392 kts | 201° |
| 2026-05-07 21:01 | 49.48420 | 45.03111 | 10279 ft | 389 kts | 201° |
| 2026-05-07 21:01 | 49.45895 | 45.01655 | 9688 ft | 386 kts | 200° |
| 2026-05-07 21:01 | 49.43395 | 45.00226 | 9056 ft | 382 kts | 200° |
| 2026-05-07 21:01 | 49.40916 | 44.98811 | 8446 ft | 377 kts | 201° |
| 2026-05-07 21:02 | 49.38471 | 44.97413 | 7854 ft | 373 kts | 201° |
| 2026-05-07 21:02 | 49.36057 | 44.96031 | 7254 ft | 368 kts | 201° |
| 2026-05-07 21:02 | 49.33672 | 44.94669 | 6677 ft | 363 kts | 201° |
| 2026-05-07 21:02 | 49.31317 | 44.93321 | 6152 ft | 358 kts | 201° |
| 2026-05-07 21:03 | 49.29035 | 44.92010 | 5974 ft | 342 kts | 201° |
| 2026-05-07 21:03 | 49.26872 | 44.90771 | 5982 ft | 321 kts | 201° |
| 2026-05-07 21:03 | 49.24834 | 44.89607 | 5890 ft | 306 kts | 201° |
| 2026-05-07 21:03 | 49.22885 | 44.88492 | 5771 ft | 293 kts | 201° |
| 2026-05-07 21:04 | 49.20998 | 44.87412 | 5646 ft | 288 kts | 201° |
| 2026-05-07 21:04 | 49.19128 | 44.86343 | 5520 ft | 286 kts | 201° |
| 2026-05-07 21:04 | 49.17267 | 44.85284 | 5397 ft | 285 kts | 201° |
| 2026-05-07 21:04 | 49.15407 | 44.84228 | 5277 ft | 285 kts | 201° |
| 2026-05-07 21:05 | 49.13556 | 44.83175 | 5152 ft | 284 kts | 201° |
| 2026-05-07 21:05 | 49.11710 | 44.82125 | 5030 ft | 283 kts | 201° |
| 2026-05-07 21:05 | 49.09868 | 44.81081 | 4906 ft | 282 kts | 201° |
| 2026-05-07 21:05 | 49.08031 | 44.80041 | 4783 ft | 282 kts | 201° |
| 2026-05-07 21:06 | 49.06218 | 44.79013 | 4656 ft | 281 kts | 201° |
| 2026-05-07 21:06 | 49.04390 | 44.77977 | 4536 ft | 280 kts | 201° |
| 2026-05-07 21:06 | 49.02543 | 44.76929 | 4409 ft | 279 kts | 201° |
| 2026-05-07 21:06 | 49.00747 | 44.75911 | 4281 ft | 279 kts | 201° |
| 2026-05-07 21:07 | 48.98906 | 44.74871 | 4160 ft | 278 kts | 201° |
| 2026-05-07 21:07 | 48.97122 | 44.73868 | 4038 ft | 277 kts | 201° |
| 2026-05-07 21:07 | 48.95316 | 44.72849 | 3914 ft | 276 kts | 201° |
| 2026-05-07 21:07 | 48.93515 | 44.71831 | 3793 ft | 276 kts | 201° |
| 2026-05-07 21:08 | 48.91717 | 44.70813 | 3679 ft | 275 kts | 202° |
| 2026-05-07 21:08 | 48.90059 | 44.69404 | 3534 ft | 273 kts | 220° |
| 2026-05-07 21:08 | 48.88772 | 44.67350 | 3424 ft | 263 kts | 237° |
| 2026-05-07 21:08 | 48.87932 | 44.64971 | 3299 ft | 249 kts | 247° |
| 2026-05-07 21:09 | 48.87189 | 44.62605 | 2853 ft | 252 kts | 246° |
| 2026-05-07 21:09 | 48.86431 | 44.60201 | 2551 ft | 249 kts | 246° |
| 2026-05-07 21:09 | 48.85705 | 44.57896 | 2497 ft | 234 kts | 246° |
| 2026-05-07 21:09 | 48.85027 | 44.55741 | 2506 ft | 219 kts | 246° |
| 2026-05-07 21:10 | 48.84383 | 44.53691 | 2505 ft | 212 kts | 247° |
| 2026-05-07 21:10 | 48.83755 | 44.51693 | 2506 ft | 205 kts | 247° |
| 2026-05-07 21:10 | 48.83175 | 44.49857 | 2491 ft | 181 kts | 247° |
| 2026-05-07 21:10 | 48.82660 | 44.48226 | 2328 ft | 160 kts | 248° |
| 2026-05-07 21:11 | 48.82345 | 44.47229 | 2184 ft | 150 kts | 248° |
| 2026-05-07 21:11 | 48.81906 | 44.45834 | 1995 ft | 144 kts | 248° |
| 2026-05-07 21:11 | 48.81065 | 44.43168 | 1638 ft | 139 kts | 248° |
| 2026-05-07 21:12 | 48.80647 | 44.41845 | 1449 ft | 139 kts | 248° |
| 2026-05-07 21:12 | 48.80229 | 44.40522 | 1274 ft | 138 kts | 247° |
| 2026-05-07 21:12 | 48.79814 | 44.39211 | 1087 ft | 137 kts | 246° |
| 2026-05-07 21:12 | 48.79401 | 44.37905 | 905 ft | 137 kts | 246° |
| 2026-05-07 21:13 | 48.78988 | 44.36603 | 722 ft | 137 kts | 245° |
| 2026-05-07 21:13 | 48.78577 | 44.35305 | 541 ft | 136 kts | 246° |
| 2026-05-07 21:13 | 48.78188 | 44.34058 | 460 ft | 118 kts | 247° |
| 2026-05-07 21:13 | 48.77909 | 44.33170 | 434 ft | 69 kts | 243° |
| 2026-05-07 21:14 | 48.77770 | 44.32759 | 437 ft | 19 kts | 243° |
| 2026-05-07 21:14 | 48.77756 | 44.32718 | 432 ft | 3 kts | 243° |
| 2026-05-07 21:14 | 48.77711 | 44.32578 | 424 ft | 28 kts | 244° |
| 2026-05-07 21:14 | 48.77599 | 44.32217 | 423 ft | 47 kts | 245° |
| 2026-05-07 21:15 | 48.77504 | 44.31887 | 421 ft | 20 kts | 261° |
| 2026-05-07 21:15 | 48.77584 | 44.31756 | 423 ft | 13 kts | 334° |
| 2026-05-07 21:15 | 48.77655 | 44.31813 | 422 ft | 14 kts | 63° |
| 2026-05-07 21:15 | 48.77703 | 44.31961 | 421 ft | 17 kts | 64° |
| 2026-05-07 21:16 | 48.77757 | 44.32131 | 423 ft | 19 kts | 64° |
| 2026-05-07 21:16 | 48.77817 | 44.32323 | 427 ft | 21 kts | 65° |
| 2026-05-07 21:16 | 48.77883 | 44.32533 | 431 ft | 23 kts | 64° |
| 2026-05-07 21:16 | 48.77956 | 44.32764 | 424 ft | 26 kts | 64° |